sensor_id;sensor_type;location;lat;lon;timestamp;P1;durP1;ratioP1;P2;durP2;ratioP2
51686;SDS011;37774;52.192;4.584;2022-10-03T00:00:29;9.15;;;1.25;;
51686;SDS011;37774;52.192;4.584;2022-10-03T00:06:01;5.70;;;1.38;;
51686;SDS011;37774;52.192;4.584;2022-10-03T00:08:56;6.10;;;0.90;;
51686;SDS011;37774;52.192;4.584;2022-10-03T00:11:38;3.13;;;0.95;;
51686;SDS011;37774;52.192;4.584;2022-10-03T00:14:20;4.93;;;0.55;;
51686;SDS011;37774;52.192;4.584;2022-10-03T00:16:54;1.60;;;0.60;;
51686;SDS011;37774;52.192;4.584;2022-10-03T00:19:29;9.52;;;0.90;;
51686;SDS011;37774;52.192;4.584;2022-10-03T00:24:40;5.28;;;0.90;;
51686;SDS011;37774;52.192;4.584;2022-10-03T00:27:25;5.68;;;1.30;;
51686;SDS011;37774;52.192;4.584;2022-10-03T00:30:00;5.00;;;1.42;;
51686;SDS011;37774;52.192;4.584;2022-10-03T00:32:41;6.30;;;1.30;;
51686;SDS011;37774;52.192;4.584;2022-10-03T00:35:22;2.28;;;0.63;;
51686;SDS011;37774;52.192;4.584;2022-10-03T00:38:06;5.25;;;1.33;;
51686;SDS011;37774;52.192;4.584;2022-10-03T00:43:41;5.93;;;1.10;;
51686;SDS011;37774;52.192;4.584;2022-10-03T00:55:45;7.82;;;1.45;;
51686;SDS011;37774;52.192;4.584;2022-10-03T00:58:36;8.20;;;1.15;;
51686;SDS011;37774;52.192;4.584;2022-10-03T01:01:20;13.25;;;1.77;;
51686;SDS011;37774;52.192;4.584;2022-10-03T01:06:24;12.13;;;0.98;;
51686;SDS011;37774;52.192;4.584;2022-10-03T01:09:08;9.50;;;1.35;;
51686;SDS011;37774;52.192;4.584;2022-10-03T01:11:49;7.82;;;1.77;;
51686;SDS011;37774;52.192;4.584;2022-10-03T01:14:36;7.25;;;0.85;;
51686;SDS011;37774;52.192;4.584;2022-10-03T01:17:18;6.35;;;0.95;;
51686;SDS011;37774;52.192;4.584;2022-10-03T01:20:05;6.78;;;1.05;;
51686;SDS011;37774;52.192;4.584;2022-10-03T01:22:48;18.40;;;1.83;;
51686;SDS011;37774;52.192;4.584;2022-10-03T01:25:41;15.90;;;1.25;;
51686;SDS011;37774;52.192;4.584;2022-10-03T01:31:32;5.57;;;0.95;;
51686;SDS011;37774;52.192;4.584;2022-10-03T01:34:06;2.05;;;0.80;;
51686;SDS011;37774;52.192;4.584;2022-10-03T01:36:39;6.63;;;0.98;;
51686;SDS011;37774;52.192;4.584;2022-10-03T01:39:14;6.18;;;1.08;;
51686;SDS011;37774;52.192;4.584;2022-10-03T01:41:51;3.83;;;0.65;;
51686;SDS011;37774;52.192;4.584;2022-10-03T01:44:27;5.93;;;1.08;;
51686;SDS011;37774;52.192;4.584;2022-10-03T01:47:07;11.07;;;1.02;;
51686;SDS011;37774;52.192;4.584;2022-10-03T01:49:47;8.45;;;0.90;;
51686;SDS011;37774;52.192;4.584;2022-10-03T01:52:21;16.45;;;2.20;;
51686;SDS011;37774;52.192;4.584;2022-10-03T01:54:55;9.85;;;0.93;;
51686;SDS011;37774;52.192;4.584;2022-10-03T01:57:31;2.67;;;0.88;;
51686;SDS011;37774;52.192;4.584;2022-10-03T02:00:07;3.70;;;0.73;;
51686;SDS011;37774;52.192;4.584;2022-10-03T02:02:38;7.47;;;1.35;;
51686;SDS011;37774;52.192;4.584;2022-10-03T02:05:12;8.02;;;1.02;;
51686;SDS011;37774;52.192;4.584;2022-10-03T02:07:45;1.88;;;0.70;;
51686;SDS011;37774;52.192;4.584;2022-10-03T02:10:21;5.90;;;1.15;;
51686;SDS011;37774;52.192;4.584;2022-10-03T02:13:02;4.40;;;0.65;;
51686;SDS011;37774;52.192;4.584;2022-10-03T02:15:40;7.97;;;0.75;;
51686;SDS011;37774;52.192;4.584;2022-10-03T02:18:20;3.00;;;0.43;;
51686;SDS011;37774;52.192;4.584;2022-10-03T02:20:56;6.32;;;0.90;;
51686;SDS011;37774;52.192;4.584;2022-10-03T02:23:36;1.58;;;0.52;;
51686;SDS011;37774;52.192;4.584;2022-10-03T02:29:30;1.95;;;0.65;;
51686;SDS011;37774;52.192;4.584;2022-10-03T02:32:55;0.88;;;0.68;;
51686;SDS011;37774;52.192;4.584;2022-10-03T02:38:38;7.38;;;0.57;;
51686;SDS011;37774;52.192;4.584;2022-10-03T02:41:45;4.75;;;0.88;;
51686;SDS011;37774;52.192;4.584;2022-10-03T02:47:29;5.72;;;0.70;;
51686;SDS011;37774;52.192;4.584;2022-10-03T02:53:36;8.77;;;0.95;;
51686;SDS011;37774;52.192;4.584;2022-10-03T02:56:55;11.93;;;1.35;;
51686;SDS011;37774;52.192;4.584;2022-10-03T02:59:41;10.32;;;1.20;;
51686;SDS011;37774;52.192;4.584;2022-10-03T03:06:01;8.45;;;1.08;;
51686;SDS011;37774;52.192;4.584;2022-10-03T03:17:26;6.68;;;1.45;;
51686;SDS011;37774;52.192;4.584;2022-10-03T03:20:05;2.40;;;1.13;;
51686;SDS011;37774;52.192;4.584;2022-10-03T03:22:51;9.90;;;0.85;;
51686;SDS011;37774;52.192;4.584;2022-10-03T03:25:34;9.75;;;1.70;;
51686;SDS011;37774;52.192;4.584;2022-10-03T03:28:16;10.48;;;1.25;;
51686;SDS011;37774;52.192;4.584;2022-10-03T03:30:55;8.32;;;1.00;;
51686;SDS011;37774;52.192;4.584;2022-10-03T03:33:34;3.55;;;0.88;;
51686;SDS011;37774;52.192;4.584;2022-10-03T03:36:09;14.38;;;0.85;;
51686;SDS011;37774;52.192;4.584;2022-10-03T03:38:48;3.53;;;0.93;;
51686;SDS011;37774;52.192;4.584;2022-10-03T03:41:30;6.70;;;1.10;;
51686;SDS011;37774;52.192;4.584;2022-10-03T03:47:32;14.63;;;1.80;;
51686;SDS011;37774;52.192;4.584;2022-10-03T03:53:01;7.55;;;1.40;;
51686;SDS011;37774;52.192;4.584;2022-10-03T03:56:07;1.67;;;0.50;;
51686;SDS011;37774;52.192;4.584;2022-10-03T03:58:52;6.75;;;1.25;;
51686;SDS011;37774;52.192;4.584;2022-10-03T04:01:34;14.50;;;0.82;;
51686;SDS011;37774;52.192;4.584;2022-10-03T04:04:16;11.35;;;0.98;;
51686;SDS011;37774;52.192;4.584;2022-10-03T04:06:56;2.83;;;1.02;;
51686;SDS011;37774;52.192;4.584;2022-10-03T04:09:41;8.38;;;0.88;;
51686;SDS011;37774;52.192;4.584;2022-10-03T04:12:29;5.00;;;1.08;;
51686;SDS011;37774;52.192;4.584;2022-10-03T04:15:14;8.05;;;1.58;;
51686;SDS011;37774;52.192;4.584;2022-10-03T04:21:25;9.20;;;1.23;;
51686;SDS011;37774;52.192;4.584;2022-10-03T04:24:03;5.25;;;0.73;;
51686;SDS011;37774;52.192;4.584;2022-10-03T04:26:53;4.38;;;0.70;;
51686;SDS011;37774;52.192;4.584;2022-10-03T04:29:43;5.00;;;0.88;;
51686;SDS011;37774;52.192;4.584;2022-10-03T04:32:18;5.95;;;1.17;;
51686;SDS011;37774;52.192;4.584;2022-10-03T04:35:04;9.27;;;0.88;;
51686;SDS011;37774;52.192;4.584;2022-10-03T04:37:42;6.07;;;0.88;;
51686;SDS011;37774;52.192;4.584;2022-10-03T04:40:20;4.72;;;0.47;;
51686;SDS011;37774;52.192;4.584;2022-10-03T04:42:58;6.35;;;0.93;;
51686;SDS011;37774;52.192;4.584;2022-10-03T04:45:45;4.60;;;1.13;;
51686;SDS011;37774;52.192;4.584;2022-10-03T04:48:23;0.77;;;0.40;;
51686;SDS011;37774;52.192;4.584;2022-10-03T04:50:59;10.07;;;1.20;;
51686;SDS011;37774;52.192;4.584;2022-10-03T04:53:40;2.78;;;0.82;;
51686;SDS011;37774;52.192;4.584;2022-10-03T04:56:19;2.65;;;0.80;;
51686;SDS011;37774;52.192;4.584;2022-10-03T04:59:00;7.40;;;0.98;;
51686;SDS011;37774;52.192;4.584;2022-10-03T05:01:40;3.33;;;1.02;;
51686;SDS011;37774;52.192;4.584;2022-10-03T05:04:23;4.68;;;1.33;;
51686;SDS011;37774;52.192;4.584;2022-10-03T05:06:58;5.18;;;1.10;;
51686;SDS011;37774;52.192;4.584;2022-10-03T05:09:38;2.85;;;1.02;;
51686;SDS011;37774;52.192;4.584;2022-10-03T05:12:14;2.08;;;0.80;;
51686;SDS011;37774;52.192;4.584;2022-10-03T05:14:57;6.10;;;0.90;;
51686;SDS011;37774;52.192;4.584;2022-10-03T05:17:38;8.68;;;1.33;;
51686;SDS011;37774;52.192;4.584;2022-10-03T05:20:27;6.22;;;1.05;;
51686;SDS011;37774;52.192;4.584;2022-10-03T05:23:23;2.72;;;1.20;;
51686;SDS011;37774;52.192;4.584;2022-10-03T05:26:01;5.47;;;1.08;;
51686;SDS011;37774;52.192;4.584;2022-10-03T05:28:35;9.50;;;1.65;;
51686;SDS011;37774;52.192;4.584;2022-10-03T05:31:16;7.00;;;1.58;;
51686;SDS011;37774;52.192;4.584;2022-10-03T05:33:58;6.05;;;1.13;;
51686;SDS011;37774;52.192;4.584;2022-10-03T05:36:40;4.30;;;1.13;;
51686;SDS011;37774;52.192;4.584;2022-10-03T05:39:36;10.68;;;1.48;;
51686;SDS011;37774;52.192;4.584;2022-10-03T05:42:18;3.88;;;1.15;;
51686;SDS011;37774;52.192;4.584;2022-10-03T05:45:02;3.30;;;1.42;;
51686;SDS011;37774;52.192;4.584;2022-10-03T05:47:44;7.15;;;1.45;;
51686;SDS011;37774;52.192;4.584;2022-10-03T05:50:22;4.05;;;1.15;;
51686;SDS011;37774;52.192;4.584;2022-10-03T05:53:11;15.63;;;1.48;;
51686;SDS011;37774;52.192;4.584;2022-10-03T05:56:14;7.95;;;1.30;;
51686;SDS011;37774;52.192;4.584;2022-10-03T05:59:05;3.00;;;1.13;;
51686;SDS011;37774;52.192;4.584;2022-10-03T06:01:59;4.30;;;1.58;;
51686;SDS011;37774;52.192;4.584;2022-10-03T06:04:49;14.65;;;1.60;;
51686;SDS011;37774;52.192;4.584;2022-10-03T06:07:29;14.07;;;1.95;;
51686;SDS011;37774;52.192;4.584;2022-10-03T06:10:21;8.27;;;1.73;;
51686;SDS011;37774;52.192;4.584;2022-10-03T06:13:16;10.82;;;1.83;;
51686;SDS011;37774;52.192;4.584;2022-10-03T06:15:58;5.00;;;1.42;;
51686;SDS011;37774;52.192;4.584;2022-10-03T06:18:49;18.92;;;1.33;;
51686;SDS011;37774;52.192;4.584;2022-10-03T06:21:45;10.02;;;2.60;;
51686;SDS011;37774;52.192;4.584;2022-10-03T06:25:04;4.00;;;1.63;;
51686;SDS011;37774;52.192;4.584;2022-10-03T06:28:07;7.70;;;1.98;;
51686;SDS011;37774;52.192;4.584;2022-10-03T06:31:03;12.45;;;2.00;;
51686;SDS011;37774;52.192;4.584;2022-10-03T06:36:59;8.35;;;1.77;;
51686;SDS011;37774;52.192;4.584;2022-10-03T06:40:10;7.10;;;1.83;;
51686;SDS011;37774;52.192;4.584;2022-10-03T06:43:08;9.65;;;1.77;;
51686;SDS011;37774;52.192;4.584;2022-10-03T06:46:05;14.18;;;2.15;;
51686;SDS011;37774;52.192;4.584;2022-10-03T06:52:06;4.78;;;1.50;;
51686;SDS011;37774;52.192;4.584;2022-10-03T06:54:58;16.08;;;1.98;;
51686;SDS011;37774;52.192;4.584;2022-10-03T07:00:54;7.20;;;1.63;;
51686;SDS011;37774;52.192;4.584;2022-10-03T07:09:43;4.93;;;1.88;;
51686;SDS011;37774;52.192;4.584;2022-10-03T07:12:45;11.90;;;2.00;;
51686;SDS011;37774;52.192;4.584;2022-10-03T07:15:36;3.15;;;1.63;;
51686;SDS011;37774;52.192;4.584;2022-10-03T07:18:21;15.70;;;2.58;;
51686;SDS011;37774;52.192;4.584;2022-10-03T07:24:35;5.80;;;1.80;;
51686;SDS011;37774;52.192;4.584;2022-10-03T07:27:37;11.52;;;1.90;;
51686;SDS011;37774;52.192;4.584;2022-10-03T07:30:16;12.95;;;2.55;;
51686;SDS011;37774;52.192;4.584;2022-10-03T07:32:53;17.00;;;1.73;;
51686;SDS011;37774;52.192;4.584;2022-10-03T07:35:49;6.55;;;1.67;;
51686;SDS011;37774;52.192;4.584;2022-10-03T07:44:58;12.55;;;2.03;;
51686;SDS011;37774;52.192;4.584;2022-10-03T07:47:43;4.53;;;1.40;;
51686;SDS011;37774;52.192;4.584;2022-10-03T07:50:45;15.60;;;2.25;;
51686;SDS011;37774;52.192;4.584;2022-10-03T07:53:29;16.90;;;1.65;;
51686;SDS011;37774;52.192;4.584;2022-10-03T07:56:20;4.70;;;1.70;;
51686;SDS011;37774;52.192;4.584;2022-10-03T07:59:23;8.95;;;1.88;;
51686;SDS011;37774;52.192;4.584;2022-10-03T08:02:14;7.45;;;1.52;;
51686;SDS011;37774;52.192;4.584;2022-10-03T08:05:01;5.35;;;1.75;;
51686;SDS011;37774;52.192;4.584;2022-10-03T08:07:52;5.65;;;1.67;;
51686;SDS011;37774;52.192;4.584;2022-10-03T08:10:55;5.95;;;1.88;;
51686;SDS011;37774;52.192;4.584;2022-10-03T08:13:57;9.07;;;1.77;;
51686;SDS011;37774;52.192;4.584;2022-10-03T08:16:40;8.70;;;2.47;;
51686;SDS011;37774;52.192;4.584;2022-10-03T08:19:40;18.15;;;2.72;;
51686;SDS011;37774;52.192;4.584;2022-10-03T08:22:30;5.20;;;2.00;;
51686;SDS011;37774;52.192;4.584;2022-10-03T08:28:24;6.75;;;2.28;;
51686;SDS011;37774;52.192;4.584;2022-10-03T08:34:29;12.02;;;2.55;;
51686;SDS011;37774;52.192;4.584;2022-10-03T08:37:19;6.07;;;1.60;;
51686;SDS011;37774;52.192;4.584;2022-10-03T08:46:47;17.20;;;2.65;;
51686;SDS011;37774;52.192;4.584;2022-10-03T08:49:50;3.35;;;1.88;;
51686;SDS011;37774;52.192;4.584;2022-10-03T08:52:35;15.02;;;2.72;;
51686;SDS011;37774;52.192;4.584;2022-10-03T08:55:22;13.23;;;3.53;;
51686;SDS011;37774;52.192;4.584;2022-10-03T09:04:48;11.32;;;2.28;;
51686;SDS011;37774;52.192;4.584;2022-10-03T09:07:37;9.02;;;2.83;;
51686;SDS011;37774;52.192;4.584;2022-10-03T09:10:31;8.85;;;1.83;;
51686;SDS011;37774;52.192;4.584;2022-10-03T09:13:17;7.38;;;1.83;;
51686;SDS011;37774;52.192;4.584;2022-10-03T09:19:11;8.43;;;1.88;;
51686;SDS011;37774;52.192;4.584;2022-10-03T09:22:10;7.13;;;2.05;;
51686;SDS011;37774;52.192;4.584;2022-10-03T09:25:11;7.72;;;2.40;;
51686;SDS011;37774;52.192;4.584;2022-10-03T09:27:53;13.90;;;2.97;;
51686;SDS011;37774;52.192;4.584;2022-10-03T09:30:58;12.10;;;2.72;;
51686;SDS011;37774;52.192;4.584;2022-10-03T09:33:47;14.60;;;2.58;;
51686;SDS011;37774;52.192;4.584;2022-10-03T09:39:48;8.77;;;1.95;;
51686;SDS011;37774;52.192;4.584;2022-10-03T09:48:49;8.32;;;2.22;;
51686;SDS011;37774;52.192;4.584;2022-10-03T09:51:40;7.50;;;2.40;;
51686;SDS011;37774;52.192;4.584;2022-10-03T09:54:24;19.33;;;3.13;;
51686;SDS011;37774;52.192;4.584;2022-10-03T10:00:15;9.98;;;2.60;;
51686;SDS011;37774;52.192;4.584;2022-10-03T10:03:01;13.43;;;2.28;;
51686;SDS011;37774;52.192;4.584;2022-10-03T10:05:53;15.75;;;3.05;;
51686;SDS011;37774;52.192;4.584;2022-10-03T10:08:34;8.23;;;2.15;;
51686;SDS011;37774;52.192;4.584;2022-10-03T10:11:18;9.02;;;2.70;;
51686;SDS011;37774;52.192;4.584;2022-10-03T10:14:01;19.40;;;2.40;;
51686;SDS011;37774;52.192;4.584;2022-10-03T10:22:41;8.80;;;2.63;;
51686;SDS011;37774;52.192;4.584;2022-10-03T10:25:34;6.50;;;2.92;;
51686;SDS011;37774;52.192;4.584;2022-10-03T10:28:45;11.80;;;2.85;;
51686;SDS011;37774;52.192;4.584;2022-10-03T10:35:02;22.73;;;3.10;;
51686;SDS011;37774;52.192;4.584;2022-10-03T10:47:08;12.68;;;1.42;;
51686;SDS011;37774;52.192;4.584;2022-10-03T10:50:03;10.68;;;1.67;;
51686;SDS011;37774;52.192;4.584;2022-10-03T10:52:46;11.43;;;1.73;;
51686;SDS011;37774;52.192;4.584;2022-10-03T10:55:41;9.68;;;1.98;;
51686;SDS011;37774;52.192;4.584;2022-10-03T11:01:52;12.30;;;2.17;;
51686;SDS011;37774;52.192;4.584;2022-10-03T11:04:56;9.75;;;2.08;;
51686;SDS011;37774;52.192;4.584;2022-10-03T11:11:21;13.70;;;2.33;;
51686;SDS011;37774;52.192;4.584;2022-10-03T11:14:51;7.97;;;1.52;;
51686;SDS011;37774;52.192;4.584;2022-10-03T11:18:05;8.48;;;1.73;;
51686;SDS011;37774;52.192;4.584;2022-10-03T11:21:25;9.23;;;1.55;;
51686;SDS011;37774;52.192;4.584;2022-10-03T11:28:00;5.95;;;1.42;;
51686;SDS011;37774;52.192;4.584;2022-10-03T11:30:59;14.20;;;1.65;;
51686;SDS011;37774;52.192;4.584;2022-10-03T11:33:59;12.85;;;1.40;;
51686;SDS011;37774;52.192;4.584;2022-10-03T11:37:04;6.47;;;1.77;;
51686;SDS011;37774;52.192;4.584;2022-10-03T11:39:39;6.03;;;1.13;;
51686;SDS011;37774;52.192;4.584;2022-10-03T11:42:18;12.43;;;1.67;;
51686;SDS011;37774;52.192;4.584;2022-10-03T11:44:54;11.35;;;1.27;;
51686;SDS011;37774;52.192;4.584;2022-10-03T11:50:22;7.78;;;1.80;;
51686;SDS011;37774;52.192;4.584;2022-10-03T11:53:09;5.47;;;1.38;;
51686;SDS011;37774;52.192;4.584;2022-10-03T11:55:44;6.80;;;1.23;;
51686;SDS011;37774;52.192;4.584;2022-10-03T11:58:27;12.90;;;1.65;;
51686;SDS011;37774;52.192;4.584;2022-10-03T12:01:15;11.65;;;1.35;;
51686;SDS011;37774;52.192;4.584;2022-10-03T12:03:50;7.60;;;1.75;;
51686;SDS011;37774;52.192;4.584;2022-10-03T12:06:36;7.20;;;1.50;;
51686;SDS011;37774;52.192;4.584;2022-10-03T12:09:31;3.28;;;0.80;;
51686;SDS011;37774;52.192;4.584;2022-10-03T12:12:11;7.70;;;1.67;;
51686;SDS011;37774;52.192;4.584;2022-10-03T12:14:42;6.85;;;1.23;;
51686;SDS011;37774;52.192;4.584;2022-10-03T12:17:13;9.82;;;1.40;;
51686;SDS011;37774;52.192;4.584;2022-10-03T12:19:46;9.50;;;1.48;;
51686;SDS011;37774;52.192;4.584;2022-10-03T12:22:25;12.95;;;1.30;;
51686;SDS011;37774;52.192;4.584;2022-10-03T12:25:05;9.30;;;1.67;;
51686;SDS011;37774;52.192;4.584;2022-10-03T12:27:46;10.13;;;1.08;;
51686;SDS011;37774;52.192;4.584;2022-10-03T12:30:18;8.95;;;2.03;;
51686;SDS011;37774;52.192;4.584;2022-10-03T12:32:50;10.15;;;2.03;;
51686;SDS011;37774;52.192;4.584;2022-10-03T12:35:33;10.15;;;2.10;;
51686;SDS011;37774;52.192;4.584;2022-10-03T12:38:24;8.65;;;1.85;;
51686;SDS011;37774;52.192;4.584;2022-10-03T12:41:09;13.55;;;1.42;;
51686;SDS011;37774;52.192;4.584;2022-10-03T12:43:49;4.90;;;1.55;;
51686;SDS011;37774;52.192;4.584;2022-10-03T12:46:33;14.40;;;2.55;;
51686;SDS011;37774;52.192;4.584;2022-10-03T12:49:10;11.07;;;1.77;;
51686;SDS011;37774;52.192;4.584;2022-10-03T12:51:51;15.40;;;2.38;;
51686;SDS011;37774;52.192;4.584;2022-10-03T12:57:32;12.32;;;1.88;;
51686;SDS011;37774;52.192;4.584;2022-10-03T13:00:13;5.38;;;1.30;;
51686;SDS011;37774;52.192;4.584;2022-10-03T13:02:46;10.40;;;1.88;;
51686;SDS011;37774;52.192;4.584;2022-10-03T13:05:35;11.07;;;1.98;;
51686;SDS011;37774;52.192;4.584;2022-10-03T13:08:23;16.83;;;1.83;;
51686;SDS011;37774;52.192;4.584;2022-10-03T13:11:03;17.52;;;2.10;;
51686;SDS011;37774;52.192;4.584;2022-10-03T13:13:47;13.07;;;1.95;;
51686;SDS011;37774;52.192;4.584;2022-10-03T13:16:30;13.40;;;2.28;;
51686;SDS011;37774;52.192;4.584;2022-10-03T13:19:02;9.32;;;1.70;;
51686;SDS011;37774;52.192;4.584;2022-10-03T13:24:33;6.35;;;1.95;;
51686;SDS011;37774;52.192;4.584;2022-10-03T13:27:22;8.18;;;1.60;;
51686;SDS011;37774;52.192;4.584;2022-10-03T13:30:01;11.13;;;1.60;;
51686;SDS011;37774;52.192;4.584;2022-10-03T13:32:31;11.93;;;1.67;;
51686;SDS011;37774;52.192;4.584;2022-10-03T13:35:06;7.25;;;1.58;;
51686;SDS011;37774;52.192;4.584;2022-10-03T13:38:15;21.25;;;2.40;;
51686;SDS011;37774;52.192;4.584;2022-10-03T13:40:50;6.43;;;1.48;;
51686;SDS011;37774;52.192;4.584;2022-10-03T13:43:28;5.22;;;1.13;;
51686;SDS011;37774;52.192;4.584;2022-10-03T13:46:03;4.13;;;1.13;;
51686;SDS011;37774;52.192;4.584;2022-10-03T13:48:37;6.25;;;1.15;;
51686;SDS011;37774;52.192;4.584;2022-10-03T13:51:07;8.57;;;1.00;;
51686;SDS011;37774;52.192;4.584;2022-10-03T13:53:55;7.07;;;2.08;;
51686;SDS011;37774;52.192;4.584;2022-10-03T13:56:36;4.90;;;0.70;;
51686;SDS011;37774;52.192;4.584;2022-10-03T13:59:13;14.55;;;1.48;;
51686;SDS011;37774;52.192;4.584;2022-10-03T14:01:55;10.55;;;1.20;;
51686;SDS011;37774;52.192;4.584;2022-10-03T14:04:33;4.38;;;1.17;;
51686;SDS011;37774;52.192;4.584;2022-10-03T14:07:13;3.22;;;1.30;;
51686;SDS011;37774;52.192;4.584;2022-10-03T14:10:02;11.85;;;1.17;;
51686;SDS011;37774;52.192;4.584;2022-10-03T14:12:38;5.43;;;1.33;;
51686;SDS011;37774;52.192;4.584;2022-10-03T14:15:20;8.90;;;1.48;;
51686;SDS011;37774;52.192;4.584;2022-10-03T14:17:57;8.45;;;1.27;;
51686;SDS011;37774;52.192;4.584;2022-10-03T14:20:32;7.68;;;0.90;;
51686;SDS011;37774;52.192;4.584;2022-10-03T14:23:09;6.47;;;1.15;;
51686;SDS011;37774;52.192;4.584;2022-10-03T14:25:50;6.60;;;0.90;;
51686;SDS011;37774;52.192;4.584;2022-10-03T14:28:25;7.65;;;1.40;;
51686;SDS011;37774;52.192;4.584;2022-10-03T14:30:59;7.30;;;1.17;;
51686;SDS011;37774;52.192;4.584;2022-10-03T14:33:37;4.80;;;1.33;;
51686;SDS011;37774;52.192;4.584;2022-10-03T14:36:16;11.90;;;2.10;;
51686;SDS011;37774;52.192;4.584;2022-10-03T14:44:25;10.05;;;1.83;;
51686;SDS011;37774;52.192;4.584;2022-10-03T14:49:34;9.73;;;1.65;;
51686;SDS011;37774;52.192;4.584;2022-10-03T14:52:04;18.42;;;2.40;;
51686;SDS011;37774;52.192;4.584;2022-10-03T14:54:39;5.28;;;1.60;;
51686;SDS011;37774;52.192;4.584;2022-10-03T14:57:12;10.27;;;1.98;;
51686;SDS011;37774;52.192;4.584;2022-10-03T14:59:48;8.32;;;1.58;;
51686;SDS011;37774;52.192;4.584;2022-10-03T15:02:24;13.07;;;2.25;;
51686;SDS011;37774;52.192;4.584;2022-10-03T15:04:56;10.48;;;2.05;;
51686;SDS011;37774;52.192;4.584;2022-10-03T15:07:33;10.88;;;1.90;;
51686;SDS011;37774;52.192;4.584;2022-10-03T15:10:04;6.43;;;1.77;;
51686;SDS011;37774;52.192;4.584;2022-10-03T15:12:35;5.35;;;1.85;;
51686;SDS011;37774;52.192;4.584;2022-10-03T15:15:07;11.65;;;2.13;;
51686;SDS011;37774;52.192;4.584;2022-10-03T15:17:42;5.82;;;1.20;;
51686;SDS011;37774;52.192;4.584;2022-10-03T15:20:12;10.80;;;1.65;;
51686;SDS011;37774;52.192;4.584;2022-10-03T15:22:46;8.77;;;1.35;;
51686;SDS011;37774;52.192;4.584;2022-10-03T15:25:15;4.63;;;1.10;;
51686;SDS011;37774;52.192;4.584;2022-10-03T15:27:45;9.70;;;1.63;;
51686;SDS011;37774;52.192;4.584;2022-10-03T15:30:18;5.57;;;1.40;;
51686;SDS011;37774;52.192;4.584;2022-10-03T15:32:47;12.13;;;1.60;;
51686;SDS011;37774;52.192;4.584;2022-10-03T15:35:18;14.52;;;1.95;;
51686;SDS011;37774;52.192;4.584;2022-10-03T15:37:49;8.02;;;1.48;;
51686;SDS011;37774;52.192;4.584;2022-10-03T15:40:21;5.90;;;1.73;;
51686;SDS011;37774;52.192;4.584;2022-10-03T15:43:00;8.02;;;2.20;;
51686;SDS011;37774;52.192;4.584;2022-10-03T15:45:32;16.80;;;3.95;;
51686;SDS011;37774;52.192;4.584;2022-10-03T15:48:02;6.85;;;1.58;;
51686;SDS011;37774;52.192;4.584;2022-10-03T15:50:33;13.85;;;1.42;;
51686;SDS011;37774;52.192;4.584;2022-10-03T15:53:05;15.13;;;2.22;;
51686;SDS011;37774;52.192;4.584;2022-10-03T15:55:39;10.63;;;1.95;;
51686;SDS011;37774;52.192;4.584;2022-10-03T15:58:13;18.08;;;2.33;;
51686;SDS011;37774;52.192;4.584;2022-10-03T16:00:42;15.23;;;2.00;;
51686;SDS011;37774;52.192;4.584;2022-10-03T16:03:12;8.57;;;1.90;;
51686;SDS011;37774;52.192;4.584;2022-10-03T16:05:50;6.22;;;1.38;;
51686;SDS011;37774;52.192;4.584;2022-10-03T16:08:22;8.98;;;1.45;;
51686;SDS011;37774;52.192;4.584;2022-10-03T16:10:56;7.70;;;2.20;;
51686;SDS011;37774;52.192;4.584;2022-10-03T16:13:33;6.10;;;2.20;;
51686;SDS011;37774;52.192;4.584;2022-10-03T16:16:15;11.30;;;2.45;;
51686;SDS011;37774;52.192;4.584;2022-10-03T16:18:46;14.50;;;2.60;;
51686;SDS011;37774;52.192;4.584;2022-10-03T16:21:21;9.75;;;1.88;;
51686;SDS011;37774;52.192;4.584;2022-10-03T16:23:58;12.40;;;1.92;;
51686;SDS011;37774;52.192;4.584;2022-10-03T16:26:28;12.85;;;1.75;;
51686;SDS011;37774;52.192;4.584;2022-10-03T16:29:01;4.68;;;1.40;;
51686;SDS011;37774;52.192;4.584;2022-10-03T16:31:38;8.05;;;1.33;;
51686;SDS011;37774;52.192;4.584;2022-10-03T16:34:11;15.25;;;1.80;;
51686;SDS011;37774;52.192;4.584;2022-10-03T16:36:42;8.25;;;2.00;;
51686;SDS011;37774;52.192;4.584;2022-10-03T16:39:14;7.68;;;1.27;;
51686;SDS011;37774;52.192;4.584;2022-10-03T16:41:49;11.60;;;1.65;;
51686;SDS011;37774;52.192;4.584;2022-10-03T16:44:18;16.20;;;2.17;;
51686;SDS011;37774;52.192;4.584;2022-10-03T16:46:49;19.38;;;1.65;;
51686;SDS011;37774;52.192;4.584;2022-10-03T16:49:29;12.90;;;2.03;;
51686;SDS011;37774;52.192;4.584;2022-10-03T16:52:21;8.48;;;1.75;;
51686;SDS011;37774;52.192;4.584;2022-10-03T16:54:59;13.25;;;2.15;;
51686;SDS011;37774;52.192;4.584;2022-10-03T16:57:31;11.77;;;2.17;;
51686;SDS011;37774;52.192;4.584;2022-10-03T17:00:11;7.90;;;1.77;;
51686;SDS011;37774;52.192;4.584;2022-10-03T17:02:41;6.72;;;2.00;;
51686;SDS011;37774;52.192;4.584;2022-10-03T17:05:08;13.93;;;2.85;;
51686;SDS011;37774;52.192;4.584;2022-10-03T17:07:41;19.45;;;2.92;;
51686;SDS011;37774;52.192;4.584;2022-10-03T17:10:19;16.95;;;3.00;;
51686;SDS011;37774;52.192;4.584;2022-10-03T17:12:54;4.82;;;1.85;;
51686;SDS011;37774;52.192;4.584;2022-10-03T17:15:25;17.73;;;2.58;;
51686;SDS011;37774;52.192;4.584;2022-10-03T17:17:56;8.60;;;2.20;;
51686;SDS011;37774;52.192;4.584;2022-10-03T17:20:42;18.83;;;2.80;;
51686;SDS011;37774;52.192;4.584;2022-10-03T17:23:17;19.60;;;3.00;;
51686;SDS011;37774;52.192;4.584;2022-10-03T17:25:56;15.93;;;2.60;;
51686;SDS011;37774;52.192;4.584;2022-10-03T17:28:31;9.45;;;2.83;;
51686;SDS011;37774;52.192;4.584;2022-10-03T17:31:04;13.77;;;2.20;;
51686;SDS011;37774;52.192;4.584;2022-10-03T17:33:40;9.20;;;2.40;;
51686;SDS011;37774;52.192;4.584;2022-10-03T17:39:20;16.27;;;3.88;;
51686;SDS011;37774;52.192;4.584;2022-10-03T17:42:00;17.08;;;3.55;;
51686;SDS011;37774;52.192;4.584;2022-10-03T17:44:34;17.08;;;4.80;;
51686;SDS011;37774;52.192;4.584;2022-10-03T17:47:16;11.70;;;5.32;;
51686;SDS011;37774;52.192;4.584;2022-10-03T17:49:49;15.32;;;6.15;;
51686;SDS011;37774;52.192;4.584;2022-10-03T17:52:23;23.98;;;6.13;;
51686;SDS011;37774;52.192;4.584;2022-10-03T17:54:52;13.20;;;4.68;;
51686;SDS011;37774;52.192;4.584;2022-10-03T17:57:21;22.77;;;4.45;;
51686;SDS011;37774;52.192;4.584;2022-10-03T17:59:56;23.73;;;5.28;;
51686;SDS011;37774;52.192;4.584;2022-10-03T18:02:32;12.52;;;4.60;;
51686;SDS011;37774;52.192;4.584;2022-10-03T18:05:05;16.73;;;5.25;;
51686;SDS011;37774;52.192;4.584;2022-10-03T18:07:38;16.48;;;5.32;;
51686;SDS011;37774;52.192;4.584;2022-10-03T18:10:15;20.73;;;4.68;;
51686;SDS011;37774;52.192;4.584;2022-10-03T18:12:45;18.08;;;4.18;;
51686;SDS011;37774;52.192;4.584;2022-10-03T18:21:23;14.77;;;4.47;;
51686;SDS011;37774;52.192;4.584;2022-10-03T18:24:09;15.82;;;4.72;;
51686;SDS011;37774;52.192;4.584;2022-10-03T18:26:46;21.67;;;5.40;;
51686;SDS011;37774;52.192;4.584;2022-10-03T18:29:20;13.73;;;6.13;;
51686;SDS011;37774;52.192;4.584;2022-10-03T18:31:55;16.38;;;5.90;;
51686;SDS011;37774;52.192;4.584;2022-10-03T18:34:25;27.50;;;6.28;;
51686;SDS011;37774;52.192;4.584;2022-10-03T18:37:00;15.40;;;5.85;;
51686;SDS011;37774;52.192;4.584;2022-10-03T18:39:29;18.95;;;6.82;;
51686;SDS011;37774;52.192;4.584;2022-10-03T18:42:02;35.20;;;8.90;;
51686;SDS011;37774;52.192;4.584;2022-10-03T18:44:35;27.42;;;10.75;;
51686;SDS011;37774;52.192;4.584;2022-10-03T18:47:06;35.78;;;11.10;;
51686;SDS011;37774;52.192;4.584;2022-10-03T18:49:42;34.55;;;12.00;;
51686;SDS011;37774;52.192;4.584;2022-10-03T18:52:18;23.27;;;7.25;;
51686;SDS011;37774;52.192;4.584;2022-10-03T18:54:51;26.88;;;6.68;;
51686;SDS011;37774;52.192;4.584;2022-10-03T18:57:32;19.38;;;6.25;;
51686;SDS011;37774;52.192;4.584;2022-10-03T19:00:03;10.48;;;4.22;;
51686;SDS011;37774;52.192;4.584;2022-10-03T19:02:34;27.08;;;4.57;;
51686;SDS011;37774;52.192;4.584;2022-10-03T19:05:07;22.83;;;4.43;;